sensor_id;sensor_type;location;lat;lon;timestamp;pressure;altitude;pressure_sealevel;temperature;humidity
66880;BME280;53789;51.392;10.234;2023-04-30T00:00:15;98774.28;;;5.00;78.68
66880;BME280;53789;51.392;10.234;2023-04-30T00:00:35;98780.53;;;5.00;78.71
66880;BME280;53789;51.392;10.234;2023-04-30T00:00:56;98773.44;;;4.99;78.19
66880;BME280;53789;51.392;10.234;2023-04-30T00:01:16;98772.63;;;4.98;78.32
66880;BME280;53789;51.392;10.234;2023-04-30T00:01:36;98776.16;;;4.99;78.35
66880;BME280;53789;51.392;10.234;2023-04-30T00:01:57;98776.16;;;4.99;78.20
66880;BME280;53789;51.392;10.234;2023-04-30T00:02:17;98778.88;;;4.99;78.96
66880;BME280;53789;51.392;10.234;2023-04-30T00:02:38;98781.59;;;4.99;77.95
66880;BME280;53789;51.392;10.234;2023-04-30T00:02:58;98781.59;;;4.99;78.15
66880;BME280;53789;51.392;10.234;2023-04-30T00:03:18;98782.44;;;5.00;78.19
66880;BME280;53789;51.392;10.234;2023-04-30T00:03:38;98783.25;;;5.00;78.13
66880;BME280;53789;51.392;10.234;2023-04-30T00:03:59;98780.28;;;5.02;79.18
66880;BME280;53789;51.392;10.234;2023-04-30T00:04:19;98784.94;;;5.01;78.58
66880;BME280;53789;51.392;10.234;2023-04-30T00:04:39;98784.94;;;5.01;78.50
66880;BME280;53789;51.392;10.234;2023-04-30T00:05:00;98785.72;;;5.02;78.12
66880;BME280;53789;51.392;10.234;2023-04-30T00:05:20;98783.00;;;5.02;78.18
66880;BME280;53789;51.392;10.234;2023-04-30T00:05:40;98788.19;;;5.03;78.41
66880;BME280;53789;51.392;10.234;2023-04-30T00:06:01;98789.00;;;5.04;77.51
66880;BME280;53789;51.392;10.234;2023-04-30T00:06:21;98783.81;;;5.02;77.40
66880;BME280;53789;51.392;10.234;2023-04-30T00:06:41;98780.28;;;5.02;77.55
66880;BME280;53789;51.392;10.234;2023-04-30T00:07:02;98787.66;;;5.01;77.46
66880;BME280;53789;51.392;10.234;2023-04-30T00:07:22;98789.53;;;5.01;77.83
66880;BME280;53789;51.392;10.234;2023-04-30T00:07:42;98785.72;;;5.02;77.74
66880;BME280;53789;51.392;10.234;2023-04-30T00:08:03;98783.00;;;5.02;77.90
66880;BME280;53789;51.392;10.234;2023-04-30T00:08:23;98788.19;;;5.03;77.79
66880;BME280;53789;51.392;10.234;2023-04-30T00:08:44;98787.66;;;5.01;77.69
66880;BME280;53789;51.392;10.234;2023-04-30T00:09:04;98792.25;;;5.01;77.17
66880;BME280;53789;51.392;10.234;2023-04-30T00:09:24;98790.38;;;5.01;77.24
66880;BME280;53789;51.392;10.234;2023-04-30T00:09:44;98784.34;;;4.99;77.60
66880;BME280;53789;51.392;10.234;2023-04-30T00:10:05;98786.81;;;5.01;77.96
66880;BME280;53789;51.392;10.234;2023-04-30T00:10:25;98788.72;;;5.00;77.40
66880;BME280;53789;51.392;10.234;2023-04-30T00:10:46;98783.25;;;5.00;77.26
66880;BME280;53789;51.392;10.234;2023-04-30T00:11:06;98789.53;;;5.01;77.82
66880;BME280;53789;51.392;10.234;2023-04-30T00:11:26;98783.25;;;5.00;77.67
66880;BME280;53789;51.392;10.234;2023-04-30T00:11:47;98793.09;;;5.01;77.85
66880;BME280;53789;51.392;10.234;2023-04-30T00:12:07;98795.81;;;5.01;77.61
66880;BME280;53789;51.392;10.234;2023-04-30T00:12:27;98785.72;;;5.02;77.82
66880;BME280;53789;51.392;10.234;2023-04-30T00:12:47;98786.00;;;5.00;77.94
66880;BME280;53789;51.392;10.234;2023-04-30T00:13:08;98786.53;;;5.02;78.31
66880;BME280;53789;51.392;10.234;2023-04-30T00:13:28;98789.28;;;5.02;78.81
66880;BME280;53789;51.392;10.234;2023-04-30T00:13:48;98793.66;;;5.03;79.16
66880;BME280;53789;51.392;10.234;2023-04-30T00:14:09;98792.59;;;5.04;78.49
66880;BME280;53789;51.392;10.234;2023-04-30T00:14:29;98795.88;;;5.06;78.98
66880;BME280;53789;51.392;10.234;2023-04-30T00:14:49;98790.41;;;5.06;78.70
66880;BME280;53789;51.392;10.234;2023-04-30T00:15:10;98785.78;;;5.07;78.61
66880;BME280;53789;51.392;10.234;2023-04-30T00:15:30;98791.22;;;5.07;78.40
66880;BME280;53789;51.392;10.234;2023-04-30T00:15:50;98794.78;;;5.07;78.77
66880;BME280;53789;51.392;10.234;2023-04-30T00:16:10;98793.94;;;5.07;79.01
66880;BME280;53789;51.392;10.234;2023-04-30T00:16:31;98793.69;;;5.08;78.62
66880;BME280;53789;51.392;10.234;2023-04-30T00:16:51;98792.88;;;5.08;77.72
66880;BME280;53789;51.392;10.234;2023-04-30T00:17:11;98793.69;;;5.08;78.41
66880;BME280;53789;51.392;10.234;2023-04-30T00:17:32;98794.78;;;5.07;78.57
66880;BME280;53789;51.392;10.234;2023-04-30T00:17:52;98798.06;;;5.09;78.89
66880;BME280;53789;51.392;10.234;2023-04-30T00:18:12;98794.53;;;5.09;78.23
66880;BME280;53789;51.392;10.234;2023-04-30T00:18:33;98798.88;;;5.10;78.48
66880;BME280;53789;51.392;10.234;2023-04-30T00:18:53;98798.06;;;5.09;78.06
66880;BME280;53789;51.392;10.234;2023-04-30T00:19:13;98794.28;;;5.10;78.42
66880;BME280;53789;51.392;10.234;2023-04-30T00:19:33;98789.91;;;5.09;77.81
66880;BME280;53789;51.392;10.234;2023-04-30T00:19:54;98793.69;;;5.08;78.09
66880;BME280;53789;51.392;10.234;2023-04-30T00:20:14;98802.47;;;5.10;78.36
66880;BME280;53789;51.392;10.234;2023-04-30T00:20:35;98801.88;;;5.08;77.92
66880;BME280;53789;51.392;10.234;2023-04-30T00:20:55;98796.41;;;5.08;77.64
66880;BME280;53789;51.392;10.234;2023-04-30T00:21:15;98796.69;;;5.07;77.87
66880;BME280;53789;51.392;10.234;2023-04-30T00:21:35;98796.41;;;5.08;78.12
66880;BME280;53789;51.392;10.234;2023-04-30T00:21:56;98800.25;;;5.07;77.48
66880;BME280;53789;51.392;10.234;2023-04-30T00:22:16;98797.53;;;5.07;77.19
66880;BME280;53789;51.392;10.234;2023-04-30T00:22:36;98801.06;;;5.08;77.93
66880;BME280;53789;51.392;10.234;2023-04-30T00:22:57;98801.06;;;5.08;77.81
66880;BME280;53789;51.392;10.234;2023-04-30T00:23:17;98796.41;;;5.08;77.24
66880;BME280;53789;51.392;10.234;2023-04-30T00:23:37;98798.34;;;5.08;77.31
66880;BME280;53789;51.392;10.234;2023-04-30T00:23:57;98796.69;;;5.07;77.53
66880;BME280;53789;51.392;10.234;2023-04-30T00:24:18;98802.13;;;5.07;76.94
66880;BME280;53789;51.392;10.234;2023-04-30T00:24:38;98800.50;;;5.06;77.43
66880;BME280;53789;51.392;10.234;2023-04-30T00:24:58;98795.31;;;5.04;77.83
66880;BME280;53789;51.392;10.234;2023-04-30T00:25:19;98794.47;;;5.04;77.55
66880;BME280;53789;51.392;10.234;2023-04-30T00:25:39;98796.38;;;5.03;77.38
66880;BME280;53789;51.392;10.234;2023-04-30T00:25:59;98799.09;;;5.03;77.91
66880;BME280;53789;51.392;10.234;2023-04-30T00:26:19;98795.56;;;5.03;77.90
66880;BME280;53789;51.392;10.234;2023-04-30T00:26:40;98802.09;;;5.02;77.49
66880;BME280;53789;51.392;10.234;2023-04-30T00:27:00;98807.53;;;5.02;77.82
66880;BME280;53789;51.392;10.234;2023-04-30T00:27:20;98801.28;;;5.01;77.75
66880;BME280;53789;51.392;10.234;2023-04-30T00:27:40;98799.63;;;5.00;77.76
66880;BME280;53789;51.392;10.234;2023-04-30T00:28:01;98798.22;;;4.97;77.57
66880;BME280;53789;51.392;10.234;2023-04-30T00:28:21;98800.13;;;4.97;77.96
66880;BME280;53789;51.392;10.234;2023-04-30T00:28:41;98797.41;;;4.97;78.31
66880;BME280;53789;51.392;10.234;2023-04-30T00:29:02;98798.44;;;4.96;77.68
66880;BME280;53789;51.392;10.234;2023-04-30T00:29:22;98808.53;;;4.95;77.92
66880;BME280;53789;51.392;10.234;2023-04-30T00:29:42;98806.88;;;4.94;78.21
66880;BME280;53789;51.392;10.234;2023-04-30T00:30:03;98807.69;;;4.95;78.07
66880;BME280;53789;51.392;10.234;2023-04-30T00:30:23;98809.88;;;4.93;77.76
66880;BME280;53789;51.392;10.234;2023-04-30T00:30:44;98804.41;;;4.93;78.54
66880;BME280;53789;51.392;10.234;2023-04-30T00:31:04;98793.50;;;4.93;78.60
66880;BME280;53789;51.392;10.234;2023-04-30T00:31:24;98803.03;;;4.90;78.66
66880;BME280;53789;51.392;10.234;2023-04-30T00:31:45;98801.13;;;4.91;78.32
66880;BME280;53789;51.392;10.234;2023-04-30T00:32:05;98812.03;;;4.91;78.60
66880;BME280;53789;51.392;10.234;2023-04-30T00:32:25;98798.41;;;4.91;78.73
66880;BME280;53789;51.392;10.234;2023-04-30T00:32:46;98808.47;;;4.90;78.67
66880;BME280;53789;51.392;10.234;2023-04-30T00:33:06;98801.13;;;4.91;78.88
66880;BME280;53789;51.392;10.234;2023-04-30T00:33:26;98806.59;;;4.91;79.04
66880;BME280;53789;51.392;10.234;2023-04-30T00:33:47;98805.75;;;4.90;79.17
66880;BME280;53789;51.392;10.234;2023-04-30T00:34:07;98809.31;;;4.91;78.97
66880;BME280;53789;51.392;10.234;2023-04-30T00:34:27;98805.75;;;4.90;78.80
66880;BME280;53789;51.392;10.234;2023-04-30T00:34:47;98807.41;;;4.91;78.97
66880;BME280;53789;51.392;10.234;2023-04-30T00:35:08;98804.69;;;4.91;78.79
66880;BME280;53789;51.392;10.234;2023-04-30T00:35:28;98803.88;;;4.91;78.87
66880;BME280;53789;51.392;10.234;2023-04-30T00:35:49;98800.28;;;4.90;78.73
66880;BME280;53789;51.392;10.234;2023-04-30T00:36:09;98806.59;;;4.91;78.94
66880;BME280;53789;51.392;10.234;2023-04-30T00:36:29;98801.13;;;4.91;78.94
66880;BME280;53789;51.392;10.234;2023-04-30T00:36:49;98802.22;;;4.90;78.87
66880;BME280;53789;51.392;10.234;2023-04-30T00:37:10;98802.47;;;4.88;78.57
66880;BME280;53789;51.392;10.234;2023-04-30T00:37:30;98806.00;;;4.89;78.82
66880;BME280;53789;51.392;10.234;2023-04-30T00:37:50;98805.19;;;4.88;78.50
66880;BME280;53789;51.392;10.234;2023-04-30T00:38:10;98807.91;;;4.88;78.85
66880;BME280;53789;51.392;10.234;2023-04-30T00:38:31;98801.66;;;4.88;79.48
66880;BME280;53789;51.392;10.234;2023-04-30T00:38:51;98808.72;;;4.89;78.88
66880;BME280;53789;51.392;10.234;2023-04-30T00:39:11;98804.13;;;4.89;78.74
66880;BME280;53789;51.392;10.234;2023-04-30T00:39:32;98806.00;;;4.89;78.98
66880;BME280;53789;51.392;10.234;2023-04-30T00:39:52;98802.47;;;4.88;78.50
66880;BME280;53789;51.392;10.234;2023-04-30T00:40:12;98809.81;;;4.88;78.88
66880;BME280;53789;51.392;10.234;2023-04-30T00:40:34;98810.91;;;4.87;78.36
66880;BME280;53789;51.392;10.234;2023-04-30T00:40:55;98810.06;;;4.86;78.88
66880;BME280;53789;51.392;10.234;2023-04-30T00:41:15;98812.78;;;4.86;78.71
66880;BME280;53789;51.392;10.234;2023-04-30T00:41:36;98810.91;;;4.87;78.60
66880;BME280;53789;51.392;10.234;2023-04-30T00:41:56;98811.16;;;4.85;78.63
66880;BME280;53789;51.392;10.234;2023-04-30T00:42:16;98809.25;;;4.86;78.70
66880;BME280;53789;51.392;10.234;2023-04-30T00:42:37;98814.94;;;4.84;78.87
66880;BME280;53789;51.392;10.234;2023-04-30T00:42:57;98810.31;;;4.85;78.84
66880;BME280;53789;51.392;10.234;2023-04-30T00:43:17;98813.28;;;4.83;78.91
66880;BME280;53789;51.392;10.234;2023-04-30T00:43:37;98811.66;;;4.82;78.32
66880;BME280;53789;51.392;10.234;2023-04-30T00:43:58;98817.94;;;4.83;78.20
66880;BME280;53789;51.392;10.234;2023-04-30T00:44:18;98807.28;;;4.81;78.99
66880;BME280;53789;51.392;10.234;2023-04-30T00:44:38;98813.81;;;4.80;78.39
66880;BME280;53789;51.392;10.234;2023-04-30T00:44:58;98808.59;;;4.78;78.14
66880;BME280;53789;51.392;10.234;2023-04-30T00:45:19;98816.53;;;4.80;78.65
66880;BME280;53789;51.392;10.234;2023-04-30T00:45:39;98813.81;;;4.80;78.73
66880;BME280;53789;51.392;10.234;2023-04-30T00:45:59;98811.34;;;4.78;79.17
66880;BME280;53789;51.392;10.234;2023-04-30T00:46:20;98813.25;;;4.78;78.69
66880;BME280;53789;51.392;10.234;2023-04-30T00:46:40;98808.88;;;4.77;78.18
66880;BME280;53789;51.392;10.234;2023-04-30T00:47:00;98811.59;;;4.77;78.65
66880;BME280;53789;51.392;10.234;2023-04-30T00:47:21;98815.63;;;4.74;78.76
66880;BME280;53789;51.392;10.234;2023-04-30T00:47:41;98811.28;;;4.73;78.73
66880;BME280;53789;51.392;10.234;2023-04-30T00:48:02;98814.28;;;4.72;79.43
66880;BME280;53789;51.392;10.234;2023-04-30T00:48:22;98815.09;;;4.72;79.33
66880;BME280;53789;51.392;10.234;2023-04-30T00:48:42;98815.63;;;4.74;78.94
66880;BME280;53789;51.392;10.234;2023-04-30T00:49:03;98815.63;;;4.74;79.08
66880;BME280;53789;51.392;10.234;2023-04-30T00:49:23;98814.00;;;4.73;78.95
66880;BME280;53789;51.392;10.234;2023-04-30T00:49:44;98811.28;;;4.73;78.69
66880;BME280;53789;51.392;10.234;2023-04-30T00:50:05;98817.81;;;4.72;79.37
66880;BME280;53789;51.392;10.234;2023-04-30T00:50:26;98821.34;;;4.73;79.51
66880;BME280;53789;51.392;10.234;2023-04-30T00:50:46;98814.28;;;4.72;79.56
66880;BME280;53789;51.392;10.234;2023-04-30T00:51:07;98822.19;;;4.73;80.66
66880;BME280;53789;51.392;10.234;2023-04-30T00:51:28;98816.75;;;4.73;80.13
66880;BME280;53789;51.392;10.234;2023-04-30T00:51:49;98817.00;;;4.72;79.98
66880;BME280;53789;51.392;10.234;2023-04-30T00:52:10;98824.91;;;4.73;79.49
66880;BME280;53789;51.392;10.234;2023-04-30T00:52:30;98818.63;;;4.73;79.52
66880;BME280;53789;51.392;10.234;2023-04-30T00:52:51;98821.34;;;4.73;79.68
66880;BME280;53789;51.392;10.234;2023-04-30T00:53:12;98830.38;;;4.73;80.14
66880;BME280;53789;51.392;10.234;2023-04-30T00:53:33;98832.25;;;4.73;79.17
66880;BME280;53789;51.392;10.234;2023-04-30T00:53:54;98822.44;;;4.72;79.77
66880;BME280;53789;51.392;10.234;2023-04-30T00:54:14;98826.22;;;4.71;79.50
66880;BME280;53789;51.392;10.234;2023-04-30T00:54:36;98826.22;;;4.71;79.75
66880;BME280;53789;51.392;10.234;2023-04-30T00:54:56;98828.97;;;4.71;79.73
66880;BME280;53789;51.392;10.234;2023-04-30T00:55:17;98828.16;;;4.70;79.46
66880;BME280;53789;51.392;10.234;2023-04-30T00:55:41;98828.16;;;4.70;79.48
66880;BME280;53789;51.392;10.234;2023-04-30T00:56:04;98827.31;;;4.70;79.36
66880;BME280;53789;51.392;10.234;2023-04-30T00:56:25;98825.44;;;4.70;79.11
66880;BME280;53789;51.392;10.234;2023-04-30T00:56:46;98821.84;;;4.70;79.27
66880;BME280;53789;51.392;10.234;2023-04-30T00:57:08;98828.16;;;4.70;80.03
66880;BME280;53789;51.392;10.234;2023-04-30T00:57:33;98829.78;;;4.71;79.85
66880;BME280;53789;51.392;10.234;2023-04-30T00:57:54;98826.22;;;4.71;79.75
66880;BME280;53789;51.392;10.234;2023-04-30T00:58:15;98829.53;;;4.73;80.18
66880;BME280;53789;51.392;10.234;2023-04-30T00:58:35;98830.63;;;4.72;80.12
66880;BME280;53789;51.392;10.234;2023-04-30T00:58:56;98831.19;;;4.74;79.99
66880;BME280;53789;51.392;10.234;2023-04-30T00:59:17;98833.09;;;4.73;79.94
66880;BME280;53789;51.392;10.234;2023-04-30T00:59:37;98829.25;;;4.74;79.40
66880;BME280;53789;51.392;10.234;2023-04-30T00:59:58;98832.00;;;4.74;79.72
66880;BME280;53789;51.392;10.234;2023-04-30T01:00:18;98830.91;;;4.75;79.73
66880;BME280;53789;51.392;10.234;2023-04-30T01:00:40;98830.66;;;4.77;79.92
66880;BME280;53789;51.392;10.234;2023-04-30T01:01:02;98826.31;;;4.76;80.05
66880;BME280;53789;51.392;10.234;2023-04-30T01:01:24;98823.34;;;4.77;80.34
66880;BME280;53789;51.392;10.234;2023-04-30T01:01:45;98835.88;;;4.78;79.93
66880;BME280;53789;51.392;10.234;2023-04-30T01:02:05;98837.53;;;4.79;80.13
66880;BME280;53789;51.392;10.234;2023-04-30T01:02:25;98835.88;;;4.78;79.64
66880;BME280;53789;51.392;10.234;2023-04-30T01:02:46;98826.88;;;4.78;79.36
66880;BME280;53789;51.392;10.234;2023-04-30T01:03:07;98826.63;;;4.79;79.37
66880;BME280;53789;51.392;10.234;2023-04-30T01:03:27;98833.13;;;4.78;78.54
66880;BME280;53789;51.392;10.234;2023-04-30T01:03:48;98826.06;;;4.77;78.58
66880;BME280;53789;51.392;10.234;2023-04-30T01:04:08;98831.50;;;4.77;78.75
66880;BME280;53789;51.392;10.234;2023-04-30T01:04:29;98832.56;;;4.76;78.29
66880;BME280;53789;51.392;10.234;2023-04-30T01:04:50;98837.22;;;4.76;78.05
66880;BME280;53789;51.392;10.234;2023-04-30T01:05:11;98832.00;;;4.74;77.91
66880;BME280;53789;51.392;10.234;2023-04-30T01:05:31;98833.91;;;4.74;78.38
66880;BME280;53789;51.392;10.234;2023-04-30T01:05:51;98832.25;;;4.73;78.80
66880;BME280;53789;51.392;10.234;2023-04-30T01:06:12;98838.78;;;4.72;78.30
66880;BME280;53789;51.392;10.234;2023-04-30T01:06:32;98836.31;;;4.70;77.96
66880;BME280;53789;51.392;10.234;2023-04-30T01:06:53;98837.38;;;4.69;77.57
66880;BME280;53789;51.392;10.234;2023-04-30T01:07:13;98838.47;;;4.68;78.04
66880;BME280;53789;51.392;10.234;2023-04-30T01:07:35;98843.34;;;4.66;77.50
66880;BME280;53789;51.392;10.234;2023-04-30T01:07:56;98837.91;;;4.66;77.86
66880;BME280;53789;51.392;10.234;2023-04-30T01:08:16;98834.63;;;4.64;77.66
66880;BME280;53789;51.392;10.234;2023-04-30T01:08:37;98839.47;;;4.62;77.19
66880;BME280;53789;51.392;10.234;2023-04-30T01:08:57;98839.16;;;4.58;76.92
66880;BME280;53789;51.392;10.234;2023-04-30T01:09:18;98840.25;;;4.57;76.92
66880;BME280;53789;51.392;10.234;2023-04-30T01:09:38;98843.22;;;4.56;77.25
66880;BME280;53789;51.392;10.234;2023-04-30T01:09:59;98838.84;;;4.55;76.93
66880;BME280;53789;51.392;10.234;2023-04-30T01:10:22;98839.09;;;4.53;77.74
66880;BME280;53789;51.392;10.234;2023-04-30T01:12:19;98840.09;;;4.47;78.13
66880;BME280;53789;51.392;10.234;2023-04-30T01:13:17;98845.81;;;4.45;78.34
66880;BME280;53789;51.392;10.234;2023-04-30T01:13:49;98844.75;;;4.47;78.52
66880;BME280;53789;51.392;10.234;2023-04-30T01:15:26;98841.94;;;4.41;78.69
66880;BME280;53789;51.392;10.234;2023-04-30T01:15:58;98844.66;;;4.41;79.21
66880;BME280;53789;51.392;10.234;2023-04-30T01:16:25;98844.41;;;4.43;79.68
66880;BME280;53789;51.392;10.234;2023-04-30T01:16:59;98837.88;;;4.44;79.35
66880;BME280;53789;51.392;10.234;2023-04-30T01:17:31;98843.34;;;4.44;79.03
66880;BME280;53789;51.392;10.234;2023-04-30T01:19:08;98840.59;;;4.44;77.91
66880;BME280;53789;51.392;10.234;2023-04-30T01:19:09;98850.69;;;4.43;78.05
66880;BME280;53789;51.392;10.234;2023-04-30T01:19:44;98832.34;;;4.39;77.90
66880;BME280;53789;51.392;10.234;2023-04-30T01:20:07;98844.91;;;4.40;78.11
66880;BME280;53789;51.392;10.234;2023-04-30T01:20:30;98853.91;;;4.40;77.66
66880;BME280;53789;51.392;10.234;2023-04-30T01:21:03;98850.34;;;4.40;78.47
66880;BME280;53789;51.392;10.234;2023-04-30T01:21:24;98845.75;;;4.40;78.16
66880;BME280;53789;51.392;10.234;2023-04-30T01:21:48;98838.91;;;4.38;78.46
66880;BME280;53789;51.392;10.234;2023-04-30T01:25:46;98844.75;;;4.30;78.72
66880;BME280;53789;51.392;10.234;2023-04-30T01:27:14;98842.53;;;4.26;78.21
66880;BME280;53789;51.392;10.234;2023-04-30T01:28:00;98846.31;;;4.25;78.32
66880;BME280;53789;51.392;10.234;2023-04-30T01:28:21;98840.06;;;4.25;78.79
66880;BME280;53789;51.392;10.234;2023-04-30T01:28:43;98842.78;;;4.25;78.90
66880;BME280;53789;51.392;10.234;2023-04-30T01:29:06;98841.13;;;4.24;78.68
66880;BME280;53789;51.392;10.234;2023-04-30T01:29:27;98841.97;;;4.24;78.53
66880;BME280;53789;51.392;10.234;2023-04-30T01:29:49;98845.50;;;4.25;79.31
66880;BME280;53789;51.392;10.234;2023-04-30T01:30:10;98843.59;;;4.25;78.81
66880;BME280;53789;51.392;10.234;2023-04-30T01:30:33;98844.44;;;4.26;79.26
66880;BME280;53789;51.392;10.234;2023-04-30T01:30:54;98847.97;;;4.26;79.63
66880;BME280;53789;51.392;10.234;2023-04-30T01:31:17;98847.97;;;4.26;79.61
66880;BME280;53789;51.392;10.234;2023-04-30T01:31:38;98839.81;;;4.26;79.31
66880;BME280;53789;51.392;10.234;2023-04-30T01:31:58;98839.81;;;4.26;79.26
66880;BME280;53789;51.392;10.234;2023-04-30T01:32:18;98842.28;;;4.28;79.38
66880;BME280;53789;51.392;10.234;2023-04-30T01:32:39;98844.44;;;4.26;78.67
66880;BME280;53789;51.392;10.234;2023-04-30T01:32:59;98849.91;;;4.26;78.81
66880;BME280;53789;51.392;10.234;2023-04-30T01:33:20;98848.81;;;4.27;79.73
66880;BME280;53789;51.392;10.234;2023-04-30T01:33:40;98847.16;;;4.26;78.76
66880;BME280;53789;51.392;10.234;2023-04-30T01:34:01;98845.00;;;4.28;79.75
66880;BME280;53789;51.392;10.234;2023-04-30T01:34:21;98844.19;;;4.27;79.19
66880;BME280;53789;51.392;10.234;2023-04-30T01:34:41;98849.38;;;4.29;79.44
66880;BME280;53789;51.392;10.234;2023-04-30T01:35:02;98851.06;;;4.30;79.84
66880;BME280;53789;51.392;10.234;2023-04-30T01:36:33;98847.56;;;4.35;79.93
66880;BME280;53789;51.392;10.234;2023-04-30T01:37:46;98840.47;;;4.34;79.50
66880;BME280;53789;51.392;10.234;2023-04-30T01:39:57;98842.63;;;4.32;79.14
66880;BME280;53789;51.392;10.234;2023-04-30T01:40:43;98845.59;;;4.30;79.13
66880;BME280;53789;51.392;10.234;2023-04-30T01:42:07;98850.78;;;4.32;79.00
66880;BME280;53789;51.392;10.234;2023-04-30T01:43:37;98844.50;;;4.31;78.90
66880;BME280;53789;51.392;10.234;2023-04-30T01:44:11;98848.06;;;4.32;79.10
66880;BME280;53789;51.392;10.234;2023-04-30T01:45:18;98845.84;;;4.28;78.46
66880;BME280;53789;51.392;10.234;2023-04-30T01:45:47;98843.94;;;4.29;78.84
66880;BME280;53789;51.392;10.234;2023-04-30T01:46:27;98842.28;;;4.28;78.76
66880;BME280;53789;51.392;10.234;2023-04-30T01:47:11;98851.88;;;4.31;79.43
66880;BME280;53789;51.392;10.234;2023-04-30T01:48:58;98840.72;;;4.32;78.81
66880;BME280;53789;51.392;10.234;2023-04-30T01:51:47;98849.91;;;4.26;77.52
66880;BME280;53789;51.392;10.234;2023-04-30T01:52:17;98849.06;;;4.25;77.73
66880;BME280;53789;51.392;10.234;2023-04-30T01:53:06;98845.75;;;4.23;78.03
66880;BME280;53789;51.392;10.234;2023-04-30T01:53:35;98850.41;;;4.23;78.19
66880;BME280;53789;51.392;10.234;2023-04-30T01:54:06;98849.56;;;4.22;77.80
66880;BME280;53789;51.392;10.234;2023-04-30T01:54:37;98847.06;;;4.21;78.30
66880;BME280;53789;51.392;10.234;2023-04-30T01:55:07;98847.94;;;4.21;79.01
66880;BME280;53789;51.392;10.234;2023-04-30T01:55:46;98851.47;;;4.22;78.95
66880;BME280;53789;51.392;10.234;2023-04-30T01:56:24;98851.47;;;4.22;78.83
66880;BME280;53789;51.392;10.234;2023-04-30T01:57:07;98853.38;;;4.21;77.98
66880;BME280;53789;51.392;10.234;2023-04-30T01:57:42;98851.97;;;4.19;77.82
66880;BME280;53789;51.392;10.234;2023-04-30T01:58:08;98847.34;;;4.19;76.99
66880;BME280;53789;51.392;10.234;2023-04-30T01:58:29;98851.16;;;4.18;77.85
66880;BME280;53789;51.392;10.234;2023-04-30T01:58:52;98849.50;;;4.17;77.33
66880;BME280;53789;51.392;10.234;2023-04-30T01:59:14;98847.84;;;4.16;77.02
66880;BME280;53789;51.392;10.234;2023-04-30T01:59:38;98853.28;;;4.16;77.78
66880;BME280;53789;51.392;10.234;2023-04-30T01:59:59;98845.38;;;4.15;77.95
66880;BME280;53789;51.392;10.234;2023-04-30T02:00:20;98852.47;;;4.16;78.35
66880;BME280;53789;51.392;10.234;2023-04-30T02:00:40;98849.75;;;4.16;78.70
66880;BME280;53789;51.392;10.234;2023-04-30T02:01:01;98848.09;;;4.15;77.88
66880;BME280;53789;51.392;10.234;2023-04-30T02:01:25;98854.38;;;4.15;77.85
66880;BME280;53789;51.392;10.234;2023-04-30T02:01:46;98850.81;;;4.15;78.67
66880;BME280;53789;51.392;10.234;2023-04-30T02:02:06;98849.75;;;4.16;78.85
66880;BME280;53789;51.392;10.234;2023-04-30T02:02:26;98849.75;;;4.16;78.07
66880;BME280;53789;51.392;10.234;2023-04-30T02:02:46;98843.47;;;4.15;78.45
66880;BME280;53789;51.392;10.234;2023-04-30T02:03:07;98848.09;;;4.15;78.24
66880;BME280;53789;51.392;10.234;2023-04-30T02:03:27;98849.75;;;4.16;78.40
66880;BME280;53789;51.392;10.234;2023-04-30T02:03:47;98860.63;;;4.16;78.28
66880;BME280;53789;51.392;10.234;2023-04-30T02:04:08;98856.84;;;4.17;78.08
66880;BME280;53789;51.392;10.234;2023-04-30T02:04:28;98851.41;;;4.17;78.06
66880;BME280;53789;51.392;10.234;2023-04-30T02:04:48;98852.47;;;4.16;77.92
66880;BME280;53789;51.392;10.234;2023-04-30T02:05:08;98855.19;;;4.16;78.28
66880;BME280;53789;51.392;10.234;2023-04-30T02:05:29;98854.38;;;4.15;78.23
66880;BME280;53789;51.392;10.234;2023-04-30T02:05:49;98855.19;;;4.16;77.75
66880;BME280;53789;51.392;10.234;2023-04-30T02:06:10;98861.69;;;4.15;77.41
66880;BME280;53789;51.392;10.234;2023-04-30T02:06:30;98857.31;;;4.14;77.15
66880;BME280;53789;51.392;10.234;2023-04-30T02:06:51;98852.72;;;4.14;78.13
66880;BME280;53789;51.392;10.234;2023-04-30T02:07:21;98856.50;;;4.13;77.75
66880;BME280;53789;51.392;10.234;2023-04-30T02:07:48;98857.31;;;4.14;78.03
66880;BME280;53789;51.392;10.234;2023-04-30T02:08:09;98857.56;;;4.12;77.24
66880;BME280;53789;51.392;10.234;2023-04-30T02:08:29;98850.50;;;4.11;76.71
66880;BME280;53789;51.392;10.234;2023-04-30T02:08:50;98854.03;;;4.12;77.68
66880;BME280;53789;51.392;10.234;2023-04-30T02:09:10;98854.03;;;4.12;77.73
66880;BME280;53789;51.392;10.234;2023-04-30T02:09:30;98859.22;;;4.13;78.40
66880;BME280;53789;51.392;10.234;2023-04-30T02:09:50;98859.22;;;4.13;78.18
66880;BME280;53789;51.392;10.234;2023-04-30T02:10:11;98857.56;;;4.12;77.86
66880;BME280;53789;51.392;10.234;2023-04-30T02:10:31;98854.84;;;4.12;77.83
66880;BME280;53789;51.392;10.234;2023-04-30T02:10:51;98854.84;;;4.12;77.68
66880;BME280;53789;51.392;10.234;2023-04-30T02:11:12;98849.16;;;4.14;77.89
66880;BME280;53789;51.392;10.234;2023-04-30T02:11:32;98851.31;;;4.12;77.76
66880;BME280;53789;51.392;10.234;2023-04-30T02:11:52;98862.19;;;4.12;76.86
66880;BME280;53789;51.392;10.234;2023-04-30T02:12:13;98858.66;;;4.11;77.24
66880;BME280;53789;51.392;10.234;2023-04-30T02:12:33;98858.06;;;4.09;77.64
66880;BME280;53789;51.392;10.234;2023-04-30T02:12:54;98852.63;;;4.09;76.92
66880;BME280;53789;51.392;10.234;2023-04-30T02:13:14;98855.34;;;4.09;77.04
66880;BME280;53789;51.392;10.234;2023-04-30T02:13:34;98856.44;;;4.08;77.82
66880;BME280;53789;51.392;10.234;2023-04-30T02:13:55;98859.16;;;4.08;77.44
66880;BME280;53789;51.392;10.234;2023-04-30T02:14:15;98859.16;;;4.08;77.49
66880;BME280;53789;51.392;10.234;2023-04-30T02:14:35;98861.03;;;4.07;77.52
66880;BME280;53789;51.392;10.234;2023-04-30T02:14:55;98858.00;;;4.04;77.41
66880;BME280;53789;51.392;10.234;2023-04-30T02:15:16;98857.19;;;4.03;77.87